Terminal Aerodrome Forecast
Issued by NWS Quad Cities IA IL

Home | Current Version | Previous Version | Text Only | Print | Product List | Glossary On
Versions: 1 2 3 4 5 6 7 8 9 10 11 12 13 14 15 16 17 18 19 20 21 22 23 24 25 26 27 28 29 30
000
FTUS43 KDVN 240300 AAB
TAFDBQ
TAF AMD
KDBQ 240302Z 2403/2424 20003KT 5SM BR BKN012
      TEMPO 2404/2408 1/2SM FG VV002
     FM240800 18003KT 1/2SM FG OVC002
     FM241500 17005KT 1 1/2SM BR OVC003
     FM241700 17007KT 6SM BR SCT004 BKN015=

USA.gov is the U.S. government's official web portal to all federal, state and local government web resources and services.